PHOENIX SKY HARBOR INTL

KPHX (PHX)
Phoenix, Arizona
Towered

Vatsim Metar:
KPHX 272151Z 30008KT 10SM FEW080 FEW250 22/01 A3003 RMK AO2 SLP159 T02170011

No ATC Online

Traffic

Inbound:
Ident
Type
Name
ETA
Phase
SWA301
B737/L
Aaron Stout KRAL
23:09 Z
Descent
SWA3827
B738/L
Christian Cooper KRFD
Boarding
ACA594
B738/X
Stephen Peake CYYZ
00:02 Z
Cruse
SCX603
B738
Michael Salvagnini KSLC
00:21 Z
Cruse
UAL897
B738/L
Brandon Bergna KILG
00:34 Z
Cruse
ASA625
B788/L
Jorge Novelo MMMX
01:20 Z
Climb

Outbound:
Ident
Type
Name
Destination
Phase
UPS1781
B75F
Kacper Kossowski EPWR
KLAX
Boarding
SWA5797
B738/L
Carter Steele KICT
KOAK
Taxiing Out
AAL2
B738/L
Pat Fuge KSAN
KSEA
Climb